sensor_id;sensor_type;location;lat;lon;timestamp;pressure;altitude;pressure_sealevel;temperature;humidity
69187;BME280;56301;56.864;60.554;2023-05-20T00:01:55;99521.09;;;23.20;39.17
69187;BME280;56301;56.864;60.554;2023-05-20T00:04:17;99522.91;;;23.20;39.42
69187;BME280;56301;56.864;60.554;2023-05-20T00:06:40;99521.94;;;23.21;39.35
69187;BME280;56301;56.864;60.554;2023-05-20T00:09:02;99531.88;;;23.20;39.60
69187;BME280;56301;56.864;60.554;2023-05-20T00:11:25;99526.50;;;23.20;39.62
69187;BME280;56301;56.864;60.554;2023-05-20T00:13:47;99527.34;;;23.21;39.09
69187;BME280;56301;56.864;60.554;2023-05-20T00:16:10;99535.44;;;23.21;39.72
69187;BME280;56301;56.864;60.554;2023-05-20T00:18:32;99529.31;;;23.19;39.40
69187;BME280;56301;56.864;60.554;2023-05-20T00:20:55;99532.19;;;23.17;38.79
69187;BME280;56301;56.864;60.554;2023-05-20T00:23:17;99528.47;;;23.18;39.32
69187;BME280;56301;56.864;60.554;2023-05-20T00:25:40;99538.44;;;23.18;38.85
69187;BME280;56301;56.864;60.554;2023-05-20T00:28:02;99537.72;;;23.16;39.51
69187;BME280;56301;56.864;60.554;2023-05-20T00:30:25;99543.84;;;23.18;39.25
69187;BME280;56301;56.864;60.554;2023-05-20T00:32:47;99538.56;;;23.16;38.92
69187;BME280;56301;56.864;60.554;2023-05-20T00:35:10;99540.28;;;23.17;39.08
69187;BME280;56301;56.864;60.554;2023-05-20T00:37:32;99537.91;;;23.14;39.00
69187;BME280;56301;56.864;60.554;2023-05-20T00:39:55;99546.66;;;23.16;38.91
69187;BME280;56301;56.864;60.554;2023-05-20T00:42:24;99544.97;;;23.15;39.43
69187;BME280;56301;56.864;60.554;2023-05-20T00:44:47;99545.28;;;23.12;39.15
69187;BME280;56301;56.864;60.554;2023-05-20T00:47:09;99546.13;;;23.13;39.43
69187;BME280;56301;56.864;60.554;2023-05-20T00:49:32;99545.28;;;23.12;39.55
69187;BME280;56301;56.864;60.554;2023-05-20T00:51:54;99552.41;;;23.13;39.12
69187;BME280;56301;56.864;60.554;2023-05-20T00:54:17;99548.84;;;23.13;39.33
69187;BME280;56301;56.864;60.554;2023-05-20T00:56:40;99553.38;;;23.12;39.12
69187;BME280;56301;56.864;60.554;2023-05-20T00:59:03;99547.00;;;23.13;39.09
69187;BME280;56301;56.864;60.554;2023-05-20T01:01:26;99555.94;;;23.14;38.97
69187;BME280;56301;56.864;60.554;2023-05-20T01:03:48;99555.25;;;23.12;39.02
69187;BME280;56301;56.864;60.554;2023-05-20T01:06:11;99549.00;;;23.11;39.54
69187;BME280;56301;56.864;60.554;2023-05-20T01:08:33;99553.56;;;23.11;38.88
69187;BME280;56301;56.864;60.554;2023-05-20T01:10:57;99556.09;;;23.12;39.39
69187;BME280;56301;56.864;60.554;2023-05-20T01:13:22;99557.94;;;23.12;39.56
69187;BME280;56301;56.864;60.554;2023-05-20T01:15:47;99558.09;;;23.10;39.68
69187;BME280;56301;56.864;60.554;2023-05-20T01:18:10;99555.41;;;23.10;39.39
69187;BME280;56301;56.864;60.554;2023-05-20T01:20:35;99556.78;;;23.14;39.78
69187;BME280;56301;56.864;60.554;2023-05-20T01:22:58;99559.78;;;23.11;39.66
69187;BME280;56301;56.864;60.554;2023-05-20T01:25:20;99563.50;;;23.10;39.34
69187;BME280;56301;56.864;60.554;2023-05-20T01:27:43;99558.09;;;23.10;39.60
69187;BME280;56301;56.864;60.554;2023-05-20T01:30:06;99561.78;;;23.09;39.80
69187;BME280;56301;56.864;60.554;2023-05-20T01:32:36;99561.78;;;23.09;39.70
69187;BME280;56301;56.864;60.554;2023-05-20T01:34:59;99560.09;;;23.08;39.27
69187;BME280;56301;56.864;60.554;2023-05-20T01:37:22;99559.25;;;23.08;39.30
69187;BME280;56301;56.864;60.554;2023-05-20T01:39:46;99561.78;;;23.09;38.99
69187;BME280;56301;56.864;60.554;2023-05-20T01:42:10;99562.66;;;23.10;39.44
69187;BME280;56301;56.864;60.554;2023-05-20T01:44:33;99565.34;;;23.10;39.53
69187;BME280;56301;56.864;60.554;2023-05-20T01:46:56;99564.66;;;23.08;39.51
69187;BME280;56301;56.864;60.554;2023-05-20T01:49:18;99569.88;;;23.09;39.45
69187;BME280;56301;56.864;60.554;2023-05-20T01:51:40;99562.66;;;23.10;39.73
69187;BME280;56301;56.864;60.554;2023-05-20T01:54:05;99569.88;;;23.09;39.41
69187;BME280;56301;56.864;60.554;2023-05-20T01:56:27;99567.19;;;23.09;39.25
69187;BME280;56301;56.864;60.554;2023-05-20T01:58:50;99564.66;;;23.08;38.94
69187;BME280;56301;56.864;60.554;2023-05-20T02:01:12;99559.09;;;23.09;39.38
69187;BME280;56301;56.864;60.554;2023-05-20T02:03:36;99564.47;;;23.09;38.65
69187;BME280;56301;56.864;60.554;2023-05-20T02:05:58;99569.22;;;23.07;39.02
69187;BME280;56301;56.864;60.554;2023-05-20T02:08:22;99562.78;;;23.08;38.45
69187;BME280;56301;56.864;60.554;2023-05-20T02:10:46;99565.50;;;23.08;38.78
69187;BME280;56301;56.864;60.554;2023-05-20T02:13:09;99573.47;;;23.10;39.08
69187;BME280;56301;56.864;60.554;2023-05-20T02:15:31;99570.91;;;23.08;38.38
69187;BME280;56301;56.864;60.554;2023-05-20T02:17:54;99577.97;;;23.09;38.96
69187;BME280;56301;56.864;60.554;2023-05-20T02:20:16;99573.59;;;23.08;38.73
69187;BME280;56301;56.864;60.554;2023-05-20T02:22:42;99577.97;;;23.09;38.89
69187;BME280;56301;56.864;60.554;2023-05-20T02:25:06;99574.97;;;23.12;38.35
69187;BME280;56301;56.864;60.554;2023-05-20T02:27:48;99571.44;;;23.12;38.84
69187;BME280;56301;56.864;60.554;2023-05-20T02:30:10;99574.31;;;23.10;38.48
69187;BME280;56301;56.864;60.554;2023-05-20T02:32:33;99573.28;;;23.11;38.60
69187;BME280;56301;56.864;60.554;2023-05-20T02:34:55;99568.75;;;23.12;38.93
69187;BME280;56301;56.864;60.554;2023-05-20T02:37:18;99572.28;;;23.12;38.55
69187;BME280;56301;56.864;60.554;2023-05-20T02:39:40;99572.28;;;23.12;38.87
69187;BME280;56301;56.864;60.554;2023-05-20T02:42:03;99574.97;;;23.30;38.39
69187;BME280;56301;56.864;60.554;2023-05-20T02:44:25;99575.94;;;23.21;38.31
69187;BME280;56301;56.864;60.554;2023-05-20T02:46:48;99574.69;;;23.15;38.53
69187;BME280;56301;56.864;60.554;2023-05-20T02:49:10;99579.22;;;23.15;38.59
69187;BME280;56301;56.864;60.554;2023-05-20T02:51:33;99582.78;;;23.15;38.52
69187;BME280;56301;56.864;60.554;2023-05-20T02:53:55;99580.91;;;23.16;38.43
69187;BME280;56301;56.864;60.554;2023-05-20T02:56:18;99579.06;;;23.16;38.47
69187;BME280;56301;56.864;60.554;2023-05-20T02:58:40;99580.78;;;23.17;38.92
69187;BME280;56301;56.864;60.554;2023-05-20T03:01:03;99584.16;;;23.19;38.67
69187;BME280;56301;56.864;60.554;2023-05-20T03:03:25;99584.69;;;23.23;38.33
69187;BME280;56301;56.864;60.554;2023-05-20T03:05:48;99588.25;;;23.23;37.87
69187;BME280;56301;56.864;60.554;2023-05-20T03:08:10;99579.59;;;23.20;38.50
69187;BME280;56301;56.864;60.554;2023-05-20T03:10:33;99576.78;;;23.21;38.06
69187;BME280;56301;56.864;60.554;2023-05-20T03:12:56;99581.47;;;23.19;38.27
69187;BME280;56301;56.864;60.554;2023-05-20T03:15:18;99575.94;;;23.21;37.89
69187;BME280;56301;56.864;60.554;2023-05-20T03:17:40;99577.78;;;23.20;38.26
69187;BME280;56301;56.864;60.554;2023-05-20T03:24:47;99581.00;;;23.24;38.09
69187;BME280;56301;56.864;60.554;2023-05-20T03:27:10;99576.47;;;23.24;37.97
69187;BME280;56301;56.864;60.554;2023-05-20T03:29:33;99577.16;;;23.26;38.40
69187;BME280;56301;56.864;60.554;2023-05-20T03:31:55;99569.03;;;23.26;37.74
69187;BME280;56301;56.864;60.554;2023-05-20T03:34:18;99571.59;;;23.28;38.03
69187;BME280;56301;56.864;60.554;2023-05-20T03:36:42;99569.03;;;23.26;37.63
69187;BME280;56301;56.864;60.554;2023-05-20T03:39:04;99571.75;;;23.26;38.05
69187;BME280;56301;56.864;60.554;2023-05-20T03:41:28;99572.44;;;23.28;37.63
69187;BME280;56301;56.864;60.554;2023-05-20T03:43:51;99575.16;;;23.28;37.68
69187;BME280;56301;56.864;60.554;2023-05-20T03:46:14;99572.44;;;23.28;38.17
69187;BME280;56301;56.864;60.554;2023-05-20T03:48:36;99571.28;;;23.31;37.61
69187;BME280;56301;56.864;60.554;2023-05-20T03:50:59;99580.38;;;23.30;37.43
69187;BME280;56301;56.864;60.554;2023-05-20T03:53:22;99575.84;;;23.30;37.22
69187;BME280;56301;56.864;60.554;2023-05-20T03:55:44;99574.13;;;23.29;37.26
69187;BME280;56301;56.864;60.554;2023-05-20T03:58:08;99577.69;;;23.30;37.33
69187;BME280;56301;56.864;60.554;2023-05-20T04:00:31;99580.25;;;23.32;36.97
69187;BME280;56301;56.864;60.554;2023-05-20T04:02:53;99575.53;;;23.34;37.10
69187;BME280;56301;56.864;60.554;2023-05-20T04:05:17;99577.06;;;23.36;37.29
69187;BME280;56301;56.864;60.554;2023-05-20T04:07:39;99568.13;;;23.36;37.19
69187;BME280;56301;56.864;60.554;2023-05-20T04:10:03;99576.91;;;23.38;36.89
69187;BME280;56301;56.864;60.554;2023-05-20T04:12:26;99573.22;;;23.39;37.22
69187;BME280;56301;56.864;60.554;2023-05-20T04:14:48;99567.50;;;23.42;37.48
69187;BME280;56301;56.864;60.554;2023-05-20T04:17:11;99577.97;;;23.45;37.42
69187;BME280;56301;56.864;60.554;2023-05-20T04:19:33;99577.31;;;23.43;37.08
69187;BME280;56301;56.864;60.554;2023-05-20T04:21:56;99570.91;;;23.44;37.27
69187;BME280;56301;56.864;60.554;2023-05-20T04:24:18;99567.88;;;23.47;37.42
69187;BME280;56301;56.864;60.554;2023-05-20T04:26:41;99566.56;;;23.51;37.25
69187;BME280;56301;56.864;60.554;2023-05-20T04:29:03;99576.41;;;23.60;37.85
69187;BME280;56301;56.864;60.554;2023-05-20T04:31:26;99574.06;;;23.57;38.26
69187;BME280;56301;56.864;60.554;2023-05-20T04:33:48;99578.13;;;23.61;38.05
69187;BME280;56301;56.864;60.554;2023-05-20T04:36:11;99571.00;;;23.60;38.31
69187;BME280;56301;56.864;60.554;2023-05-20T04:38:36;99575.56;;;23.60;38.31
69187;BME280;56301;56.864;60.554;2023-05-20T04:40:59;99566.16;;;23.64;38.29
69187;BME280;56301;56.864;60.554;2023-05-20T04:43:21;99576.81;;;23.65;37.97
69187;BME280;56301;56.864;60.554;2023-05-20T04:45:43;99565.88;;;23.67;37.81
69187;BME280;56301;56.864;60.554;2023-05-20T04:48:07;99569.28;;;23.69;38.42
69187;BME280;56301;56.864;60.554;2023-05-20T04:50:32;99573.84;;;23.68;38.43
69187;BME280;56301;56.864;60.554;2023-05-20T04:52:54;99564.72;;;23.69;38.59
69187;BME280;56301;56.864;60.554;2023-05-20T04:55:17;99564.72;;;23.69;40.51
69187;BME280;56301;56.864;60.554;2023-05-20T04:57:39;99560.00;;;23.71;39.93
69187;BME280;56301;56.864;60.554;2023-05-20T05:00:02;99562.38;;;23.74;39.68
69187;BME280;56301;56.864;60.554;2023-05-20T05:02:24;99559.00;;;23.72;40.84
69187;BME280;56301;56.864;60.554;2023-05-20T05:04:47;99564.22;;;23.74;40.61
69187;BME280;56301;56.864;60.554;2023-05-20T05:07:10;99560.38;;;23.76;40.08
69187;BME280;56301;56.864;60.554;2023-05-20T05:09:33;99556.00;;;23.75;41.02
69187;BME280;56301;56.864;60.554;2023-05-20T05:11:55;99556.66;;;23.77;41.08
69187;BME280;56301;56.864;60.554;2023-05-20T05:14:18;99550.28;;;23.78;41.46
69187;BME280;56301;56.864;60.554;2023-05-20T05:16:41;99551.97;;;23.80;41.69
69187;BME280;56301;56.864;60.554;2023-05-20T05:19:04;99552.63;;;23.82;41.64
69187;BME280;56301;56.864;60.554;2023-05-20T05:21:30;99551.78;;;23.81;41.65
69187;BME280;56301;56.864;60.554;2023-05-20T05:23:53;99548.94;;;23.83;41.95
69187;BME280;56301;56.864;60.554;2023-05-20T05:26:15;99556.03;;;23.84;42.16
69187;BME280;56301;56.864;60.554;2023-05-20T05:28:42;99553.34;;;23.84;42.04
69187;BME280;56301;56.864;60.554;2023-05-20T05:31:05;99555.59;;;23.96;40.48
69187;BME280;56301;56.864;60.554;2023-05-20T05:33:27;99546.19;;;24.00;39.76
69187;BME280;56301;56.864;60.554;2023-05-20T05:35:51;99547.03;;;24.01;38.71
69187;BME280;56301;56.864;60.554;2023-05-20T05:38:14;99549.03;;;23.99;39.63
69187;BME280;56301;56.864;60.554;2023-05-20T05:40:36;99552.44;;;24.01;38.82
69187;BME280;56301;56.864;60.554;2023-05-20T05:42:59;99549.56;;;24.02;37.88
69187;BME280;56301;56.864;60.554;2023-05-20T05:45:22;99543.13;;;24.03;38.68
69187;BME280;56301;56.864;60.554;2023-05-20T05:47:44;99544.69;;;24.06;37.77
69187;BME280;56301;56.864;60.554;2023-05-20T05:50:08;99554.34;;;24.09;40.39
69187;BME280;56301;56.864;60.554;2023-05-20T05:52:31;99545.41;;;24.16;40.20
69187;BME280;56301;56.864;60.554;2023-05-20T05:54:53;99538.47;;;24.14;41.42
69187;BME280;56301;56.864;60.554;2023-05-20T05:57:16;99550.19;;;24.22;39.65
69187;BME280;56301;56.864;60.554;2023-05-20T05:59:38;99539.03;;;24.25;40.19
69187;BME280;56301;56.864;60.554;2023-05-20T06:02:01;99531.94;;;24.24;39.91
69187;BME280;56301;56.864;60.554;2023-05-20T06:04:24;99523.78;;;24.16;40.31
69187;BME280;56301;56.864;60.554;2023-05-20T06:06:49;99523.78;;;24.16;38.24
69187;BME280;56301;56.864;60.554;2023-05-20T06:09:12;99524.34;;;24.28;38.55
69187;BME280;56301;56.864;60.554;2023-05-20T06:11:34;99526.31;;;24.44;41.06
69187;BME280;56301;56.864;60.554;2023-05-20T06:13:57;99533.03;;;24.40;41.70
69187;BME280;56301;56.864;60.554;2023-05-20T06:16:20;99523.19;;;24.39;42.34
69187;BME280;56301;56.864;60.554;2023-05-20T06:18:42;99524.22;;;24.38;43.87
69187;BME280;56301;56.864;60.554;2023-05-20T06:21:05;99522.91;;;24.42;44.13
69187;BME280;56301;56.864;60.554;2023-05-20T06:23:28;99515.81;;;24.41;43.56
69187;BME280;56301;56.864;60.554;2023-05-20T06:25:56;99521.53;;;24.38;43.00
69187;BME280;56301;56.864;60.554;2023-05-20T06:28:19;99514.63;;;24.43;41.93
69187;BME280;56301;56.864;60.554;2023-05-20T06:30:42;99515.66;;;24.50;42.20
69187;BME280;56301;56.864;60.554;2023-05-20T06:33:05;99511.78;;;24.53;42.17
69187;BME280;56301;56.864;60.554;2023-05-20T06:35:27;99503.50;;;24.55;43.07
69187;BME280;56301;56.864;60.554;2023-05-20T06:37:50;99504.22;;;24.22;31.65
69187;BME280;56301;56.864;60.554;2023-05-20T06:40:12;99499.16;;;24.27;30.95
69187;BME280;56301;56.864;60.554;2023-05-20T06:42:35;99500.56;;;24.40;30.54
69187;BME280;56301;56.864;60.554;2023-05-20T06:45:01;99494.03;;;24.50;31.38
69187;BME280;56301;56.864;60.554;2023-05-20T06:47:38;99492.84;;;24.53;33.19
69187;BME280;56301;56.864;60.554;2023-05-20T06:50:02;99499.94;;;24.54;33.84
69187;BME280;56301;56.864;60.554;2023-05-20T06:52:26;99490.34;;;24.60;32.70
69187;BME280;56301;56.864;60.554;2023-05-20T06:54:48;99506.41;;;24.61;32.65
69187;BME280;56301;56.864;60.554;2023-05-20T06:57:11;99487.31;;;24.63;31.17
69187;BME280;56301;56.864;60.554;2023-05-20T06:59:34;99499.50;;;24.67;36.46
69187;BME280;56301;56.864;60.554;2023-05-20T07:01:58;99500.66;;;24.64;38.12
69187;BME280;56301;56.864;60.554;2023-05-20T07:04:20;99493.19;;;24.50;31.13
69187;BME280;56301;56.864;60.554;2023-05-20T07:06:43;99489.00;;;24.64;31.90
69187;BME280;56301;56.864;60.554;2023-05-20T07:09:05;99491.03;;;24.70;34.15
69187;BME280;56301;56.864;60.554;2023-05-20T07:11:28;99488.84;;;24.73;35.37
69187;BME280;56301;56.864;60.554;2023-05-20T07:13:51;99491.03;;;24.70;39.84
69187;BME280;56301;56.864;60.554;2023-05-20T07:16:13;99488.47;;;24.60;32.10
69187;BME280;56301;56.864;60.554;2023-05-20T07:18:40;99488.66;;;24.24;26.08
69187;BME280;56301;56.864;60.554;2023-05-20T07:21:03;99497.69;;;24.33;27.42
69187;BME280;56301;56.864;60.554;2023-05-20T07:23:45;99493.50;;;24.47;26.66
69187;BME280;56301;56.864;60.554;2023-05-20T07:26:08;99493.88;;;24.60;27.07
69187;BME280;56301;56.864;60.554;2023-05-20T07:28:30;99490.88;;;24.71;27.95
69187;BME280;56301;56.864;60.554;2023-05-20T07:30:54;99478.53;;;24.77;30.31
69187;BME280;56301;56.864;60.554;2023-05-20T07:33:20;99473.47;;;24.82;31.26
69187;BME280;56301;56.864;60.554;2023-05-20T07:35:43;99475.84;;;24.77;29.26
69187;BME280;56301;56.864;60.554;2023-05-20T07:38:07;99469.06;;;24.81;30.65
69187;BME280;56301;56.864;60.554;2023-05-20T07:40:30;99475.31;;;24.82;28.48
69187;BME280;56301;56.864;60.554;2023-05-20T07:42:52;99477.69;;;24.77;27.27
69187;BME280;56301;56.864;60.554;2023-05-20T07:45:15;99473.31;;;24.84;29.58
69187;BME280;56301;56.864;60.554;2023-05-20T07:47:38;99478.38;;;24.87;29.08
69187;BME280;56301;56.864;60.554;2023-05-20T07:50:00;99469.06;;;24.89;30.29
69187;BME280;56301;56.864;60.554;2023-05-20T07:52:23;99475.50;;;24.96;36.16
69187;BME280;56301;56.864;60.554;2023-05-20T07:54:46;99467.22;;;24.98;36.72
69187;BME280;56301;56.864;60.554;2023-05-20T07:57:09;99465.19;;;25.00;38.32
69187;BME280;56301;56.864;60.554;2023-05-20T07:59:31;99468.22;;;24.81;29.39
69187;BME280;56301;56.864;60.554;2023-05-20T08:01:54;99469.72;;;24.75;27.82
69187;BME280;56301;56.864;60.554;2023-05-20T08:04:17;99468.69;;;24.68;27.01
69187;BME280;56301;56.864;60.554;2023-05-20T08:06:39;99467.91;;;24.84;28.92
69187;BME280;56301;56.864;60.554;2023-05-20T08:09:05;99479.38;;;24.86;29.18
69187;BME280;56301;56.864;60.554;2023-05-20T08:11:30;99455.88;;;24.86;27.94
69187;BME280;56301;56.864;60.554;2023-05-20T08:13:53;99462.66;;;24.98;31.99
69187;BME280;56301;56.864;60.554;2023-05-20T08:16:19;99457.72;;;24.94;36.25
69187;BME280;56301;56.864;60.554;2023-05-20T08:18:42;99461.47;;;24.85;39.39
69187;BME280;56301;56.864;60.554;2023-05-20T08:21:05;99455.69;;;24.80;38.56
69187;BME280;56301;56.864;60.554;2023-05-20T08:23:27;99462.13;;;24.87;38.69
69187;BME280;56301;56.864;60.554;2023-05-20T08:25:50;99452.66;;;24.83;40.44
69187;BME280;56301;56.864;60.554;2023-05-20T08:28:14;99451.31;;;24.87;37.01
69187;BME280;56301;56.864;60.554;2023-05-20T08:30:37;99459.09;;;24.82;29.67
69187;BME280;56301;56.864;60.554;2023-05-20T08:32:59;99454.03;;;24.95;30.91
69187;BME280;56301;56.864;60.554;2023-05-20T08:35:23;99445.56;;;24.90;29.47
69187;BME280;56301;56.864;60.554;2023-05-20T08:37:45;99444.72;;;25.06;30.55
69187;BME280;56301;56.864;60.554;2023-05-20T08:40:09;99450.81;;;25.08;32.30
69187;BME280;56301;56.864;60.554;2023-05-20T08:42:34;99448.94;;;25.08;35.10
69187;BME280;56301;56.864;60.554;2023-05-20T08:44:57;99439.50;;;25.12;32.57
69187;BME280;56301;56.864;60.554;2023-05-20T08:47:21;99448.44;;;24.96;38.99
69187;BME280;56301;56.864;60.554;2023-05-20T08:49:43;99441.16;;;24.89;36.45
69187;BME280;56301;56.864;60.554;2023-05-20T08:52:06;99440.31;;;24.88;38.91
69187;BME280;56301;56.864;60.554;2023-05-20T08:54:45;99435.41;;;24.84;39.37
69187;BME280;56301;56.864;60.554;2023-05-20T08:57:07;99439.81;;;24.85;38.92
69187;BME280;56301;56.864;60.554;2023-05-20T08:59:30;99429.81;;;24.85;37.10
69187;BME280;56301;56.864;60.554;2023-05-20T09:01:52;99438.13;;;24.92;33.00
69187;BME280;56301;56.864;60.554;2023-05-20T09:04:15;99438.13;;;24.92;38.56
69187;BME280;56301;56.864;60.554;2023-05-20T09:06:43;99435.56;;;24.90;34.07
69187;BME280;56301;56.864;60.554;2023-05-20T09:09:06;99448.09;;;24.91;37.68
69187;BME280;56301;56.864;60.554;2023-05-20T09:11:28;99442.19;;;24.88;38.24
69187;BME280;56301;56.864;60.554;2023-05-20T09:13:51;99434.22;;;24.86;33.63
69187;BME280;56301;56.864;60.554;2023-05-20T09:16:13;99434.41;;;24.93;37.63
69187;BME280;56301;56.864;60.554;2023-05-20T09:18:39;99435.91;;;24.87;38.77
69187;BME280;56301;56.864;60.554;2023-05-20T09:21:03;99427.97;;;24.86;38.63
69187;BME280;56301;56.864;60.554;2023-05-20T09:23:27;99436.09;;;24.86;38.75
69187;BME280;56301;56.864;60.554;2023-05-20T09:25:50;99438.78;;;24.86;37.01
69187;BME280;56301;56.864;60.554;2023-05-20T09:28:13;99443.88;;;24.89;37.03
69187;BME280;56301;56.864;60.554;2023-05-20T09:30:36;99438.13;;;24.92;38.02
69187;BME280;56301;56.864;60.554;2023-05-20T09:32:59;99426.78;;;24.88;38.46
69187;BME280;56301;56.864;60.554;2023-05-20T09:35:22;99425.94;;;24.88;38.72
69187;BME280;56301;56.864;60.554;2023-05-20T09:37:45;99434.91;;;24.88;38.59
69187;BME280;56301;56.864;60.554;2023-05-20T09:40:08;99432.19;;;24.88;39.09
69187;BME280;56301;56.864;60.554;2023-05-20T09:42:40;99427.63;;;24.89;38.74
69187;BME280;56301;56.864;60.554;2023-05-20T09:45:03;99435.75;;;24.89;37.14
69187;BME280;56301;56.864;60.554;2023-05-20T09:47:26;99432.72;;;24.92;34.66
69187;BME280;56301;56.864;60.554;2023-05-20T09:49:49;99421.03;;;24.91;32.24
69187;BME280;56301;56.864;60.554;2023-05-20T09:52:14;99426.25;;;25.01;33.45
69187;BME280;56301;56.864;60.554;2023-05-20T09:54:36;99427.81;;;24.95;35.92
69187;BME280;56301;56.864;60.554;2023-05-20T09:56:59;99433.69;;;24.91;35.15
69187;BME280;56301;56.864;60.554;2023-05-20T09:59:21;99419.50;;;24.97;36.41
69187;BME280;56301;56.864;60.554;2023-05-20T10:01:44;99421.69;;;24.93;37.61
69187;BME280;56301;56.864;60.554;2023-05-20T10:04:07;99424.22;;;24.87;36.01
69187;BME280;56301;56.864;60.554;2023-05-20T10:06:39;99430.03;;;23.83;37.74
69187;BME280;56301;56.864;60.554;2023-05-20T10:11:51;99428.66;;;23.78;40.51
69187;BME280;56301;56.864;60.554;2023-05-20T10:14:36;99421.88;;;23.74;40.84
69187;BME280;56301;56.864;60.554;2023-05-20T10:17:12;99420.38;;;23.80;41.04
69187;BME280;56301;56.864;60.554;2023-05-20T10:19:36;99418.97;;;24.02;40.93
69187;BME280;56301;56.864;60.554;2023-05-20T10:22:09;99413.97;;;24.23;40.69
69187;BME280;56301;56.864;60.554;2023-05-20T10:24:33;99423.06;;;23.46;41.78
69187;BME280;56301;56.864;60.554;2023-05-20T10:26:56;99417.88;;;23.09;42.84
69187;BME280;56301;56.864;60.554;2023-05-20T10:29:19;99413.31;;;23.09;42.92
69187;BME280;56301;56.864;60.554;2023-05-20T10:31:47;99412.66;;;23.07;42.83
69187;BME280;56301;56.864;60.554;2023-05-20T10:34:16;99416.13;;;23.17;43.38
69187;BME280;56301;56.864;60.554;2023-05-20T10:36:43;99417.75;;;23.10;43.78
69187;BME280;56301;56.864;60.554;2023-05-20T10:39:06;99407.63;;;23.12;43.88
69187;BME280;56301;56.864;60.554;2023-05-20T10:41:29;99419.13;;;23.14;44.16
69187;BME280;56301;56.864;60.554;2023-05-20T10:46:23;99422.41;;;23.52;45.02
69187;BME280;56301;56.864;60.554;2023-05-20T10:48:45;99413.72;;;24.00;44.14
69187;BME280;56301;56.864;60.554;2023-05-20T10:51:11;99413.97;;;24.32;43.25
69187;BME280;56301;56.864;60.554;2023-05-20T10:53:38;99412.72;;;24.44;42.23
69187;BME280;56301;56.864;60.554;2023-05-20T10:56:00;99410.09;;;23.84;43.16
69187;BME280;56301;56.864;60.554;2023-05-20T10:58:23;99401.59;;;23.70;43.99
69187;BME280;56301;56.864;60.554;2023-05-20T11:00:46;99405.38;;;23.60;44.08
69187;BME280;56301;56.864;60.554;2023-05-20T11:03:09;99408.75;;;23.53;44.08
69187;BME280;56301;56.864;60.554;2023-05-20T11:05:32;99396.28;;;23.95;43.42
69187;BME280;56301;56.864;60.554;2023-05-20T11:08:01;99403.28;;;24.22;41.97
69187;BME280;56301;56.864;60.554;2023-05-20T11:10:23;99399.81;;;24.38;41.50
69187;BME280;56301;56.864;60.554;2023-05-20T11:12:46;99401.72;;;24.45;41.30
69187;BME280;56301;56.864;60.554;2023-05-20T11:15:10;99403.09;;;24.07;42.40
69187;BME280;56301;56.864;60.554;2023-05-20T11:17:33;99405.22;;;23.53;44.11
69187;BME280;56301;56.864;60.554;2023-05-20T11:19:55;99394.06;;;23.56;44.31
69187;BME280;56301;56.864;60.554;2023-05-20T11:22:18;99400.03;;;23.42;44.84
69187;BME280;56301;56.864;60.554;2023-05-20T11:24:41;99401.16;;;23.57;44.31
69187;BME280;56301;56.864;60.554;2023-05-20T11:27:03;99397.31;;;23.94;43.76
69187;BME280;56301;56.864;60.554;2023-05-20T11:29:26;99393.16;;;24.16;42.39
69187;BME280;56301;56.864;60.554;2023-05-20T11:31:49;99400.63;;;24.30;41.70
69187;BME280;56301;56.864;60.554;2023-05-20T11:34:11;99398.13;;;24.37;41.23
69187;BME280;56301;56.864;60.554;2023-05-20T11:36:34;99398.78;;;24.39;42.13
69187;BME280;56301;56.864;60.554;2023-05-20T11:39:01;99393.06;;;24.42;41.63
69187;BME280;56301;56.864;60.554;2023-05-20T11:41:24;99388.28;;;24.36;42.54
69187;BME280;56301;56.864;60.554;2023-05-20T11:43:53;99393.41;;;23.96;43.63
69187;BME280;56301;56.864;60.554;2023-05-20T11:46:16;99395.91;;;23.55;44.31
69187;BME280;56301;56.864;60.554;2023-05-20T11:48:49;99394.31;;;23.45;44.98
69187;BME280;56301;56.864;60.554;2023-05-20T11:51:12;99395.81;;;23.65;44.18
69187;BME280;56301;56.864;60.554;2023-05-20T11:53:34;99395.59;;;23.93;43.70
69187;BME280;56301;56.864;60.554;2023-05-20T11:56:02;99379.78;;;24.14;42.33
69187;BME280;56301;56.864;60.554;2023-05-20T11:58:25;99390.16;;;24.27;42.89
69187;BME280;56301;56.864;60.554;2023-05-20T12:00:48;99391.84;;;24.36;42.25
69187;BME280;56301;56.864;60.554;2023-05-20T12:03:11;99390.00;;;24.37;42.04
69187;BME280;56301;56.864;60.554;2023-05-20T12:05:34;99386.59;;;24.35;41.90
69187;BME280;56301;56.864;60.554;2023-05-20T12:07:56;99392.38;;;24.40;41.34
69187;BME280;56301;56.864;60.554;2023-05-20T12:10:18;99393.06;;;24.42;41.41
69187;BME280;56301;56.864;60.554;2023-05-20T12:12:41;99393.06;;;24.42;41.27
69187;BME280;56301;56.864;60.554;2023-05-20T12:15:03;99389.34;;;24.43;41.78
69187;BME280;56301;56.864;60.554;2023-05-20T12:17:26;99384.78;;;24.43;41.56
69187;BME280;56301;56.864;60.554;2023-05-20T12:19:48;99390.88;;;24.45;41.32
69187;BME280;56301;56.864;60.554;2023-05-20T12:22:11;99382.94;;;24.44;41.17
69187;BME280;56301;56.864;60.554;2023-05-20T12:24:33;99393.25;;;24.48;41.22
69187;BME280;56301;56.864;60.554;2023-05-20T12:26:56;99388.00;;;24.47;41.09
69187;BME280;56301;56.864;60.554;2023-05-20T12:29:18;99384.31;;;24.48;40.49
69187;BME280;56301;56.864;60.554;2023-05-20T12:31:41;99397.00;;;24.47;41.32
69187;BME280;56301;56.864;60.554;2023-05-20T12:34:03;99399.50;;;24.49;40.85
69187;BME280;56301;56.864;60.554;2023-05-20T12:36:25;99387.00;;;24.48;40.41
69187;BME280;56301;56.864;60.554;2023-05-20T12:38:48;99380.75;;;24.47;40.47
69187;BME280;56301;56.864;60.554;2023-05-20T12:41:10;99382.78;;;24.45;41.45